Time;durP1;ratioP1;P1;durP2;ratioP2;P2;SDS_P1;SDS_P2;PMS_P1;PMS_P2;Temp;Humidity;BMP_temperature;BMP_pressure;BME280_temperature;BME280_humidity;BME280_pressure;Samples;Min_cycle;Max_cycle;Signal;HPM_P1;HPM_P2
2023/08/05 00:01:26;;;;;;;5.60;3.10;;;;;;;16.39;100.00;100886.94;5014351;28;20038;-47
2023/08/05 00:03:51;;;;;;;6.82;2.75;;;;;;;16.39;100.00;100881.59;5015153;28;20033;-50
2023/08/05 00:06:16;;;;;;;4.18;2.45;;;;;;;16.27;100.00;100886.84;5014616;28;20030;-47
2023/08/05 00:08:42;;;;;;;6.53;3.55;;;;;;;16.30;100.00;100881.88;5011505;28;20408;-46
2023/08/05 00:11:07;;;;;;;5.78;2.90;;;;;;;16.21;100.00;100863.63;5012367;28;20064;-45
2023/08/05 00:13:34;;;;;;;13.45;2.85;;;;;;;16.03;100.00;100865.22;5010688;28;20096;-48
2023/08/05 00:16:01;;;;;;;6.10;2.92;;;;;;;16.05;100.00;100870.34;5014580;28;20041;-49
2023/08/05 00:18:26;;;;;;;4.55;3.05;;;;;;;16.02;100.00;100870.78;5012906;28;20144;-46
2023/08/05 00:20:52;;;;;;;8.63;4.28;;;;;;;16.03;100.00;100865.22;5021087;28;20542;-46
2023/08/05 00:23:17;;;;;;;5.35;3.40;;;;;;;16.07;100.00;100865.59;5022090;28;21168;-46
2023/08/05 00:25:42;;;;;;;9.57;3.75;;;;;;;16.15;100.00;100851.94;5012476;28;20037;-47
2023/08/05 00:28:07;;;;;;;9.27;3.58;;;;;;;16.14;100.00;100839.63;5016274;28;20479;-47
2023/08/05 00:30:33;;;;;;;6.28;3.40;;;;;;;16.15;100.00;100841.25;5016796;28;20116;-48
2023/08/05 00:32:58;;;;;;;6.03;2.78;;;;;;;16.17;100.00;100831.16;5023529;28;20120;-47
2023/08/05 00:35:23;;;;;;;5.88;3.30;;;;;;;16.20;100.00;100827.22;5018036;28;20038;-46
2023/08/05 00:37:49;;;;;;;7.95;3.83;;;;;;;16.07;100.00;100812.09;5018390;28;20037;-48
2023/08/05 00:40:14;;;;;;;6.63;2.53;;;;;;;15.95;100.00;100797.81;5017491;28;20479;-47
2023/08/05 00:42:39;;;;;;;8.27;3.85;;;;;;;15.88;100.00;100793.34;5017928;28;20132;-45
2023/08/05 00:45:05;;;;;;;5.70;3.80;;;;;;;15.84;100.00;100792.13;5017911;28;20037;-48
2023/08/05 00:47:30;;;;;;;5.13;3.70;;;;;;;15.78;100.00;100798.34;5017714;28;20033;-44
2023/08/05 00:49:58;;;;;;;5.70;4.40;;;;;;;15.74;100.00;100781.09;5014974;28;20067;-45
2023/08/05 00:52:24;;;;;;;6.25;3.85;;;;;;;15.75;100.00;100777.41;5017135;28;20021;-47
2023/08/05 00:54:49;;;;;;;6.68;4.40;;;;;;;15.80;100.00;100774.91;5017106;28;20049;-47
2023/08/05 00:57:17;;;;;;;7.97;3.53;;;;;;;15.84;100.00;100762.72;5015293;28;20026;-46
2023/08/05 00:59:43;;;;;;;7.00;4.45;;;;;;;15.83;100.00;100761.09;5016064;28;20033;-46
2023/08/05 01:02:08;;;;;;;6.72;3.55;;;;;;;15.77;100.00;100761.13;5018601;28;20537;-47
2023/08/05 01:04:34;;;;;;;6.50;3.88;;;;;;;15.73;100.00;100760.75;5018930;28;20065;-50
2023/08/05 01:07:00;;;;;;;5.07;3.25;;;;;;;15.78;100.00;100760.94;5020183;28;20108;-47
2023/08/05 01:09:26;;;;;;;8.18;4.00;;;;;;;15.80;100.00;100732.13;5016553;28;20033;-47
2023/08/05 01:11:51;;;;;;;5.78;3.90;;;;;;;15.87;100.00;100726.69;5013808;28;20033;-44
2023/08/05 01:14:17;;;;;;;5.38;3.22;;;;;;;15.94;100.00;100726.66;5021834;28;20071;-47
2023/08/05 01:16:42;;;;;;;6.22;3.40;;;;;;;15.96;100.00;100713.88;5019069;28;20064;-44
2023/08/05 01:19:16;;;;;;;10.02;4.45;;;;;;;15.89;100.00;100724.63;5012892;28;20104;-47
2023/08/05 01:22:11;;;;;;;3.15;2.45;;;;;;;15.92;100.00;100725.00;5020767;28;20037;-46
2023/08/05 01:24:50;;;;;;;5.90;3.33;;;;;;;15.85;100.00;100723.44;5019874;28;20060;-46
2023/08/05 01:27:16;;;;;;;6.82;3.03;;;;;;;15.81;100.00;100712.38;5031200;28;20036;-47
2023/08/05 01:29:41;;;;;;;12.57;3.97;;;;;;;15.86;100.00;100717.88;5016792;28;20030;-47
2023/08/05 01:32:07;;;;;;;6.05;3.10;;;;;;;15.87;100.00;100708.00;5018826;28;20370;-46
2023/08/05 01:34:33;;;;;;;6.78;2.42;;;;;;;15.92;100.00;100692.09;5019688;28;20802;-46
2023/08/05 01:36:58;;;;;;;4.47;2.45;;;;;;;15.93;100.00;100685.72;5016877;28;20025;-47
2023/08/05 01:39:23;;;;;;;9.85;4.00;;;;;;;15.90;100.00;100684.31;5018115;28;20041;-47
2023/08/05 01:41:49;;;;;;;8.55;3.80;;;;;;;15.85;100.00;100681.50;5015567;28;20025;-47
2023/08/05 01:44:14;;;;;;;5.38;2.97;;;;;;;15.78;100.00;100670.03;5012921;28;20037;-47
2023/08/05 01:46:39;;;;;;;5.15;2.80;;;;;;;15.80;100.00;100672.47;5013798;28;20045;-47
2023/08/05 01:49:05;;;;;;;5.68;3.10;;;;;;;15.73;100.00;100672.56;5016208;28;20103;-45
2023/08/05 01:51:30;;;;;;;6.40;3.17;;;;;;;15.74;100.00;100666.16;5012403;28;20029;-49
2023/08/05 01:53:55;;;;;;;5.03;2.92;;;;;;;15.76;100.00;100658.75;5015756;28;20025;-46
2023/08/05 01:56:21;;;;;;;4.38;3.63;;;;;;;15.72;100.00;100659.41;5017151;28;20140;-44
2023/08/05 01:58:46;;;;;;;4.75;2.00;;;;;;;15.68;100.00;100659.81;5015472;28;20025;-45
2023/08/05 02:01:12;;;;;;;5.50;2.80;;;;;;;15.73;100.00;100666.41;5015293;28;20061;-46
2023/08/05 02:03:37;;;;;;;2.92;2.42;;;;;;;15.78;100.00;100664.69;5014523;28;20447;-46
2023/08/05 02:06:02;;;;;;;5.15;2.83;;;;;;;15.82;100.00;100649.00;5012707;28;20022;-48
2023/08/05 02:08:28;;;;;;;6.13;2.35;;;;;;;15.82;100.00;100641.81;5013033;28;20152;-45
2023/08/05 02:10:53;;;;;;;4.85;3.60;;;;;;;15.67;100.00;100636.81;5016927;28;20412;-50
2023/08/05 02:13:18;;;;;;;8.90;2.83;;;;;;;15.60;100.00;100629.88;5014763;28;20562;-46
2023/08/05 02:15:44;;;;;;;7.63;2.80;;;;;;;15.48;100.00;100621.75;5014874;28;20045;-46
2023/08/05 02:18:09;;;;;;;4.32;2.55;;;;;;;15.52;100.00;100628.31;5012373;28;20037;-44
2023/08/05 02:20:35;;;;;;;8.23;3.00;;;;;;;15.54;100.00;100630.75;5017552;28;20030;-46
2023/08/05 02:23:00;;;;;;;2.50;2.30;;;;;;;15.59;100.00;100617.53;5013581;28;20029;-46
2023/08/05 02:25:25;;;;;;;4.43;3.15;;;;;;;15.68;100.00;100618.91;5014470;28;20475;-46
2023/08/05 02:27:51;;;;;;;4.40;2.08;;;;;;;15.60;100.00;100613.84;5016363;28;20656;-45
2023/08/05 02:30:16;;;;;;;3.50;2.15;;;;;;;15.61;100.00;100604.78;5015454;28;20029;-44
2023/08/05 02:32:41;;;;;;;7.82;4.00;;;;;;;15.63;100.00;100616.88;5016472;28;20041;-46
2023/08/05 02:35:07;;;;;;;6.97;3.05;;;;;;;15.60;100.00;100624.53;5008035;28;20067;-48
2023/08/05 02:37:32;;;;;;;4.63;3.33;;;;;;;15.67;100.00;100630.66;5011544;28;20038;-48
2023/08/05 02:39:58;;;;;;;4.65;2.65;;;;;;;15.63;100.00;100624.91;5016676;28;20026;-46
2023/08/05 02:42:23;;;;;;;4.63;2.40;;;;;;;15.78;100.00;100621.09;5018427;28;20070;-49
2023/08/05 02:44:50;;;;;;;3.63;1.85;;;;;;;15.90;100.00;100604.09;5017001;28;20029;-54
2023/08/05 02:47:15;;;;;;;5.78;3.10;;;;;;;15.87;100.00;100604.53;5017493;28;20079;-46
2023/08/05 02:49:40;;;;;;;7.32;2.80;;;;;;;15.89;100.00;100607.81;5020115;28;20553;-47
2023/08/05 02:52:06;;;;;;;6.65;2.80;;;;;;;16.10;100.00;100595.00;5016129;28;20483;-46
2023/08/05 02:54:31;;;;;;;8.60;2.72;;;;;;;16.14;100.00;100593.53;5013152;28;20042;-48
2023/08/05 02:56:56;;;;;;;5.18;2.55;;;;;;;16.20;100.00;100581.94;5018966;28;20022;-47
2023/08/05 02:59:21;;;;;;;7.07;1.90;;;;;;;16.21;100.00;100569.34;5014636;28;20030;-47
2023/08/05 03:01:47;;;;;;;5.15;2.10;;;;;;;16.18;100.00;100572.50;5014171;28;20063;-46
2023/08/05 03:04:12;;;;;;;4.30;1.73;;;;;;;16.16;100.00;100566.53;5014213;28;20120;-46
2023/08/05 03:06:37;;;;;;;2.85;2.20;;;;;;;16.19;100.00;100561.56;5029993;28;20041;-46
2023/08/05 03:09:03;;;;;;;5.13;2.88;;;;;;;16.14;100.00;100564.13;5017872;28;20045;-46
2023/08/05 03:11:31;;;;;;;6.05;2.50;;;;;;;16.09;100.00;100561.31;5015927;28;20040;-48
2023/08/05 03:13:57;;;;;;;5.63;3.42;;;;;;;16.14;100.00;100545.38;5018656;28;20057;-48
2023/08/05 03:16:22;;;;;;;5.47;3.70;;;;;;;16.14;100.00;100534.69;5013413;28;20116;-49
2023/08/05 03:18:48;;;;;;;6.38;2.60;;;;;;;16.18;100.00;100529.69;5020048;28;20134;-48
2023/08/05 03:21:13;;;;;;;5.80;3.13;;;;;;;16.20;100.00;100531.09;5012623;28;20045;-50
2023/08/05 03:23:38;;;;;;;5.32;3.33;;;;;;;16.21;100.00;100524.72;5013655;28;20502;-47
2023/08/05 03:26:04;;;;;;;6.70;3.25;;;;;;;16.26;100.00;100526.69;5017466;28;20039;-50
2023/08/05 03:28:29;;;;;;;5.78;2.47;;;;;;;16.24;100.00;100523.47;5017832;28;20040;-47
2023/08/05 03:30:54;;;;;;;5.05;3.50;;;;;;;16.27;100.00;100509.63;5012329;28;20030;-47
2023/08/05 03:33:20;;;;;;;5.63;2.13;;;;;;;16.24;100.00;100504.72;5016837;28;20148;-47
2023/08/05 03:35:45;;;;;;;4.45;2.80;;;;;;;16.21;100.00;100492.63;5013820;28;20041;-47
2023/08/05 03:38:10;;;;;;;8.07;3.22;;;;;;;16.22;100.00;100499.59;5013844;28;20441;-50
2023/08/05 03:40:36;;;;;;;8.20;3.85;;;;;;;16.17;100.00;100501.31;5017823;28;20427;-46
2023/08/05 03:43:02;;;;;;;3.67;2.70;;;;;;;16.18;100.00;100493.06;5019604;28;20175;-48
2023/08/05 03:45:27;;;;;;;10.27;3.80;;;;;;;16.23;100.00;100498.53;5014385;28;20569;-51
2023/08/05 03:47:54;;;;;;;8.18;2.67;;;;;;;16.28;100.00;100493.31;5010135;28;20030;-46
2023/08/05 03:50:20;;;;;;;8.38;3.50;;;;;;;16.16;100.00;100488.97;5007867;28;20040;-49
2023/08/05 03:52:46;;;;;;;3.40;3.10;;;;;;;16.16;100.00;100487.13;5015858;28;20030;-47
2023/08/05 03:55:11;;;;;;;7.30;3.10;;;;;;;16.17;100.00;100488.75;5008895;28;20120;-45
2023/08/05 03:57:37;;;;;;;7.88;2.90;;;;;;;16.10;100.00;100480.81;5016234;28;20087;-49
2023/08/05 04:00:04;;;;;;;5.80;3.42;;;;;;;16.15;100.00;100480.13;5018225;28;20060;-49
2023/08/05 04:02:29;;;;;;;7.10;3.38;;;;;;;16.09;100.00;100473.03;5018704;28;20438;-49
2023/08/05 04:04:54;;;;;;;10.00;3.92;;;;;;;16.10;100.00;100469.31;5019990;28;20021;-49
2023/08/05 04:07:20;;;;;;;4.78;3.22;;;;;;;15.98;100.00;100469.28;5019441;28;20121;-50
2023/08/05 04:09:48;;;;;;;5.93;3.45;;;;;;;16.00;100.00;100469.84;5015062;28;20195;-50
2023/08/05 04:12:14;;;;;;;6.07;3.40;;;;;;;15.95;100.00;100451.00;5012872;28;20550;-48
2023/08/05 04:14:40;;;;;;;5.43;4.20;;;;;;;15.94;100.00;100448.56;5015513;28;20033;-47
2023/08/05 04:17:06;;;;;;;5.43;3.40;;;;;;;16.00;100.00;100436.94;5021542;28;20029;-45
2023/08/05 04:19:32;;;;;;;6.93;3.95;;;;;;;15.98;100.00;100444.38;5020502;28;20025;-47
2023/08/05 04:22:00;;;;;;;5.22;2.78;;;;;;;15.91;100.00;100449.84;5021040;28;20040;-48
2023/08/05 04:24:27;;;;;;;13.27;5.68;;;;;;;15.83;100.00;100439.47;5021956;28;20037;-49
2023/08/05 04:26:53;;;;;;;4.88;3.72;;;;;;;15.82;100.00;100440.47;5019308;28;20140;-48
2023/08/05 04:29:22;;;;;;;4.18;2.95;;;;;;;15.75;100.00;100429.91;5015208;28;20554;-48
2023/08/05 04:31:48;;;;;;;6.90;4.32;;;;;;;15.70;100.00;100429.75;5018208;28;20501;-45
2023/08/05 04:34:13;;;;;;;5.30;3.30;;;;;;;15.64;100.00;100426.09;5018667;28;20074;-50
2023/08/05 04:36:38;;;;;;;10.07;3.80;;;;;;;15.65;100.00;100417.03;5018149;28;20082;-50
2023/08/05 04:39:04;;;;;;;3.55;2.63;;;;;;;15.54;100.00;100419.66;5018309;28;20256;-58
2023/08/05 04:41:30;;;;;;;8.88;4.40;;;;;;;15.58;100.00;100410.97;5018107;28;20037;-48
2023/08/05 04:43:56;;;;;;;5.93;4.00;;;;;;;15.59;100.00;100409.09;5021197;28;20036;-49
2023/08/05 04:46:22;;;;;;;8.38;4.30;;;;;;;15.61;100.00;100407.00;5022622;28;20129;-48
2023/08/05 04:48:47;;;;;;;9.18;3.20;;;;;;;15.53;100.00;100408.16;5019268;28;20036;-49
2023/08/05 04:51:13;;;;;;;7.22;4.30;;;;;;;15.51;100.00;100398.72;5016255;28;20048;-46
2023/08/05 04:53:38;;;;;;;7.78;4.30;;;;;;;15.54;100.00;100395.59;5017511;28;20038;-53
2023/08/05 04:56:03;;;;;;;13.00;4.63;;;;;;;15.40;100.00;100390.41;5020074;28;20117;-49
2023/08/05 04:58:29;;;;;;;7.82;4.35;;;;;;;15.34;100.00;100383.31;5018341;28;20414;-55
2023/08/05 05:00:57;;;;;;;10.40;4.20;;;;;;;15.26;100.00;100386.31;5017214;28;20088;-50
2023/08/05 05:03:23;;;;;;;5.40;4.32;;;;;;;15.29;100.00;100388.53;5018194;28;20777;-50
2023/08/05 05:05:49;;;;;;;5.88;3.55;;;;;;;15.26;100.00;100378.28;5018134;28;20080;-52
2023/08/05 05:08:16;;;;;;;8.10;4.10;;;;;;;15.33;100.00;100372.84;5018819;28;20045;-55
2023/08/05 05:10:50;;;;;;;7.68;4.70;;;;;;;15.36;100.00;100375.91;5018158;28;20084;-49
2023/08/05 05:13:16;;;;;;;12.77;4.18;;;;;;;15.41;100.00;100370.69;5019974;28;20475;-48
2023/08/05 05:15:42;;;;;;;6.47;4.55;;;;;;;15.42;100.00;100371.50;5020919;28;20044;-49
2023/08/05 05:18:07;;;;;;;9.18;4.97;;;;;;;15.48;100.00;100363.38;5016034;28;20032;-46
2023/08/05 05:20:33;;;;;;;6.75;4.38;;;;;;;15.47;100.00;100367.13;5017827;28;20117;-52
2023/08/05 05:22:59;;;;;;;11.05;5.68;;;;;;;15.55;100.00;100362.50;5016581;28;20385;-53
2023/08/05 05:25:25;;;;;;;10.50;5.80;;;;;;;15.56;100.00;100350.75;5013011;28;20649;-53
2023/08/05 05:27:50;;;;;;;9.27;3.72;;;;;;;15.51;100.00;100355.97;5016383;28;20044;-52
2023/08/05 05:30:15;;;;;;;11.27;4.15;;;;;;;15.59;100.00;100350.31;5014394;28;20353;-49
2023/08/05 05:32:41;;;;;;;7.45;4.18;;;;;;;15.68;100.00;100344.41;5012782;28;20149;-51
2023/08/05 05:35:06;;;;;;;6.13;4.78;;;;;;;15.63;100.00;100338.94;5016823;28;20155;-51
2023/08/05 05:37:32;;;;;;;8.60;4.25;;;;;;;15.64;100.00;100343.25;5017016;28;20041;-51
2023/08/05 05:39:57;;;;;;;9.05;4.95;;;;;;;15.64;100.00;100342.41;5018237;28;20466;-48
2023/08/05 05:42:22;;;;;;;13.57;5.25;;;;;;;15.53;100.00;100345.88;5015351;28;20029;-54
2023/08/05 05:44:52;;;;;;;5.55;4.35;;;;;;;15.57;100.00;100339.03;5017010;28;20076;-52
2023/08/05 05:47:20;;;;;;;5.20;4.00;;;;;;;15.51;100.00;100340.75;5016152;28;20036;-51
2023/08/05 05:49:46;;;;;;;7.97;4.32;;;;;;;15.61;100.00;100337.53;5011122;28;20018;-50
2023/08/05 05:52:15;;;;;;;5.82;4.30;;;;;;;15.61;100.00;100338.34;5007716;28;20194;-50
2023/08/05 05:54:41;;;;;;;10.02;4.55;;;;;;;15.64;100.00;100345.09;5014310;28;20068;-52
2023/08/05 05:57:06;;;;;;;8.23;5.75;;;;;;;15.72;100.00;100343.97;5014208;28;20029;-48
2023/08/05 05:59:31;;;;;;;8.48;4.22;;;;;;;15.79;100.00;100328.66;5017324;28;20086;-51
2023/08/05 06:01:57;;;;;;;6.70;4.70;;;;;;;15.87;100.00;100306.94;5011664;28;20091;-51
2023/08/05 06:04:24;;;;;;;7.55;4.78;;;;;;;16.02;100.00;100306.50;5016357;28;20033;-51
2023/08/05 06:06:49;;;;;;;10.13;5.07;;;;;;;16.03;100.00;100305.44;5014362;28;20473;-52
2023/08/05 06:09:15;;;;;;;6.22;4.00;;;;;;;16.00;100.00;100305.91;5013850;28;20025;-51
2023/08/05 06:11:40;;;;;;;9.88;5.40;;;;;;;15.97;100.00;100296.50;5021003;28;20033;-52
2023/08/05 06:14:06;;;;;;;7.63;4.60;;;;;;;15.93;100.00;100290.00;5017612;28;20560;-49
2023/08/05 06:16:32;;;;;;;8.82;4.60;;;;;;;15.86;100.00;100290.09;5009323;28;20045;-52
2023/08/05 06:18:57;;;;;;;7.55;5.38;;;;;;;15.82;100.00;100267.53;5011796;28;20134;-54
2023/08/05 06:21:22;;;;;;;8.68;5.63;;;;;;;15.78;100.00;100252.22;5014653;28;20025;-51
2023/08/05 06:23:48;;;;;;;7.15;5.20;;;;;;;15.75;100.00;100252.63;5017923;28;20403;-63
2023/08/05 06:26:13;;;;;;;11.55;5.15;;;;;;;15.74;100.00;100238.47;5008088;28;20079;-55
2023/08/05 06:28:38;;;;;;;8.77;5.03;;;;;;;15.56;100.00;100227.84;5012637;28;20548;-59
2023/08/05 06:31:04;;;;;;;8.32;5.75;;;;;;;15.54;100.00;100219.22;5014229;28;20067;-61
2023/08/05 06:33:29;;;;;;;10.35;6.72;;;;;;;15.61;100.00;100201.25;5016014;28;20037;-58
2023/08/05 06:35:55;;;;;;;13.10;5.28;;;;;;;15.58;100.00;100180.34;5015452;28;20119;-64
2023/08/05 06:38:20;;;;;;;8.05;5.05;;;;;;;15.68;100.00;100164.53;5009655;28;20038;-57
2023/08/05 06:40:46;;;;;;;7.10;4.25;;;;;;;15.79;100.00;100170.97;5014952;28;20025;-57
2023/08/05 06:43:11;;;;;;;11.05;6.28;;;;;;;15.80;100.00;100167.22;5019005;28;20040;-59
2023/08/05 06:45:36;;;;;;;9.27;5.03;;;;;;;15.63;100.00;100164.41;5017607;28;20083;-55
2023/08/05 06:48:02;;;;;;;12.98;6.25;;;;;;;15.66;100.00;100164.75;5016992;28;20037;-51
2023/08/05 06:50:27;;;;;;;8.70;4.85;;;;;;;15.65;100.00;100152.44;5014856;28;20036;-54
2023/08/05 06:52:52;;;;;;;11.10;5.47;;;;;;;15.76;100.00;100142.84;5020822;28;20029;-60
2023/08/05 06:55:19;;;;;;;9.10;5.25;;;;;;;15.76;100.00;100148.19;5011633;28;20164;-62
2023/08/05 06:57:48;;;;;;;10.38;6.30;;;;;;;15.94;100.00;100131.19;5017076;28;20598;-60
2023/08/05 07:00:13;;;;;;;7.05;5.50;;;;;;;15.92;100.00;100123.41;5008708;28;20044;-66
2023/08/05 07:02:39;;;;;;;9.88;6.13;;;;;;;15.94;100.00;100123.19;4997268;28;20050;-62
2023/08/05 07:05:04;;;;;;;11.25;5.43;;;;;;;16.07;100.00;100111.41;5002295;28;20061;-55
2023/08/05 07:07:31;;;;;;;12.88;5.53;;;;;;;16.08;100.00;100108.50;4995565;28;20039;-61
2023/08/05 07:10:01;;;;;;;8.23;6.20;;;;;;;16.13;100.00;100102.44;5001372;28;20142;-62
2023/08/05 07:12:26;;;;;;;7.85;5.25;;;;;;;16.10;100.00;100105.59;4998752;28;20068;-64
2023/08/05 07:14:52;;;;;;;13.63;5.75;;;;;;;16.11;100.00;100101.88;4997109;28;20159;-56
2023/08/05 07:17:18;;;;;;;14.20;5.13;;;;;;;16.02;100.00;100098.75;4993562;28;20061;-60
2023/08/05 07:19:43;;;;;;;8.43;5.82;;;;;;;15.86;100.00;100088.78;4998541;28;20227;-66
2023/08/05 07:22:08;;;;;;;7.95;5.13;;;;;;;15.85;100.00;100087.13;4996843;28;20459;-54
2023/08/05 07:24:34;;;;;;;7.93;5.18;;;;;;;15.95;100.00;100081.19;4996013;28;20149;-64
2023/08/05 07:26:59;;;;;;;10.50;5.13;;;;;;;16.02;100.00;100073.88;4996754;28;20037;-62
2023/08/05 07:29:24;;;;;;;9.27;4.75;;;;;;;16.05;100.00;100070.72;4998035;28;20033;-63
2023/08/05 07:31:50;;;;;;;11.15;5.38;;;;;;;16.06;100.00;100072.34;4995057;28;20029;-64
2023/08/05 07:34:16;;;;;;;5.07;3.67;;;;;;;16.16;100.00;100061.88;4993870;28;20134;-59
2023/08/05 07:36:43;;;;;;;10.23;5.38;;;;;;;16.21;100.00;100053.09;4994830;28;20045;-59
2023/08/05 07:39:09;;;;;;;7.68;4.88;;;;;;;16.32;100.00;100046.91;4999008;28;20021;-65
2023/08/05 07:41:36;;;;;;;8.38;4.55;;;;;;;16.28;100.00;100038.53;4995428;28;20041;-66
2023/08/05 07:44:03;;;;;;;8.32;5.20;;;;;;;16.13;100.00;100031.06;5000501;28;20030;-65
2023/08/05 07:46:32;;;;;;;7.65;4.97;;;;;;;16.20;100.00;100020.19;4999606;28;20526;-61
2023/08/05 07:49:00;;;;;;;12.57;5.70;;;;;;;16.12;100.00;100010.69;5001852;28;20040;-66
2023/08/05 07:51:25;;;;;;;7.43;5.25;;;;;;;16.12;100.00;100007.22;4997615;28;20052;-58
2023/08/05 07:53:53;;;;;;;13.35;5.97;;;;;;;16.13;100.00;99998.13;5000921;28;20033;-66
2023/08/05 07:56:19;;;;;;;8.98;5.28;;;;;;;16.22;100.00;99983.34;4997140;28;20037;-60
2023/08/05 07:58:46;;;;;;;5.75;4.15;;;;;;;16.29;100.00;99986.69;5000428;28;20037;-66
2023/08/05 08:01:22;;;;;;;8.25;5.03;;;;;;;16.28;100.00;99982.34;4997670;28;20034;-50
2023/08/05 08:03:53;;;;;;;5.55;4.18;;;;;;;16.31;100.00;99971.16;4998899;28;20483;-52
2023/08/05 08:06:19;;;;;;;9.77;4.37;;;;;;;16.27;100.00;99964.69;4998959;28;20038;-54
2023/08/05 08:08:45;;;;;;;7.85;4.05;;;;;;;16.23;100.00;99960.88;4999018;28;20845;-66
2023/08/05 08:11:10;;;;;;;7.70;4.28;;;;;;;16.39;100.00;99958.47;4995897;28;20088;-59
2023/08/05 08:13:36;;;;;;;5.80;3.78;;;;;;;16.17;100.00;99940.44;4997817;28;20041;-65
2023/08/05 08:16:02;;;;;;;7.40;4.38;;;;;;;16.06;100.00;99941.31;4995243;28;20042;-53
2023/08/05 08:18:27;;;;;;;7.03;3.17;;;;;;;16.20;100.00;99933.81;5010124;28;20037;-53
2023/08/05 08:20:53;;;;;;;10.52;3.90;;;;;;;16.11;100.00;99930.72;5001470;28;21654;-54
2023/08/05 08:23:19;;;;;;;5.38;3.90;;;;;;;16.08;100.00;99923.16;5003538;28;20601;-57
2023/08/05 08:25:44;;;;;;;4.70;3.63;;;;;;;16.14;100.00;99914.19;5000408;28;20025;-65
2023/08/05 08:28:10;;;;;;;4.22;2.60;;;;;;;16.03;100.00;99917.72;5008680;28;20083;-63
2023/08/05 08:30:35;;;;;;;7.43;3.83;;;;;;;16.05;100.00;99910.28;5005668;28;20029;-66
2023/08/05 08:33:00;;;;;;;7.03;4.55;;;;;;;16.13;100.00;99901.84;5003783;28;20080;-54
2023/08/05 08:35:26;;;;;;;5.90;3.40;;;;;;;16.24;100.00;99895.66;4999205;28;20452;-56
2023/08/05 08:37:51;;;;;;;6.47;3.15;;;;;;;16.32;100.00;99892.56;4998681;28;20029;-64
2023/08/05 08:40:16;;;;;;;7.88;3.47;;;;;;;16.33;100.00;99885.34;5002850;28;20033;-64
2023/08/05 08:42:42;;;;;;;3.58;3.03;;;;;;;16.12;100.00;99874.31;5005730;28;20041;-54
2023/08/05 08:45:10;;;;;;;5.53;3.17;;;;;;;15.87;100.00;99869.31;5006328;28;20040;-65
2023/08/05 08:47:37;;;;;;;6.00;2.92;;;;;;;15.80;100.00;99871.34;5005886;28;20505;-59
2023/08/05 08:50:03;;;;;;;3.45;2.47;;;;;;;15.80;100.00;99870.53;5022528;28;20038;-66
2023/08/05 08:52:29;;;;;;;4.50;2.25;;;;;;;15.79;100.00;99858.22;5006292;28;20056;-64
2023/08/05 08:54:55;;;;;;;2.97;2.28;;;;;;;15.81;100.00;99862.28;5005740;28;20034;-63
2023/08/05 08:57:22;;;;;;;8.82;2.92;;;;;;;15.89;100.00;99864.56;5004719;28;20145;-61
2023/08/05 08:59:47;;;;;;;3.60;2.08;;;;;;;16.05;100.00;99856.78;5006699;28;20097;-63
2023/08/05 09:02:20;;;;;;;2.03;1.77;;;;;;;16.11;100.00;99850.50;5012889;28;21323;-57
2023/08/05 09:04:47;;;;;;;5.78;2.33;;;;;;;16.15;100.00;99832.91;5006236;28;20038;-65
2023/08/05 09:07:13;;;;;;;3.25;2.22;;;;;;;16.21;100.00;99839.13;5013384;28;20522;-67
2023/08/05 09:09:38;;;;;;;4.68;2.42;;;;;;;16.19;100.00;99831.38;5015815;28;20366;-66
2023/08/05 09:12:04;;;;;;;5.85;2.05;;;;;;;16.17;100.00;99825.44;5009309;28;20637;-65
2023/08/05 09:14:29;;;;;;;2.55;2.00;;;;;;;16.29;100.00;99818.16;5009573;28;20029;-67
2023/08/05 09:16:57;;;;;;;2.35;2.15;;;;;;;16.29;100.00;99822.69;5000866;28;20498;-65
2023/08/05 09:19:26;;;;;;;2.15;1.85;;;;;;;16.20;100.00;99814.25;5002848;28;20053;-60
2023/08/05 09:21:53;;;;;;;1.73;1.27;;;;;;;16.35;100.00;99809.13;5004464;28;20136;-59
2023/08/05 09:24:25;;;;;;;2.17;1.70;;;;;;;16.40;100.00;99799.56;5008110;28;20040;-64
2023/08/05 09:26:59;;;;;;;1.77;1.38;;;;;;;16.38;100.00;99789.09;5006456;28;20026;-58
2023/08/05 09:29:26;;;;;;;1.67;1.58;;;;;;;16.44;100.00;99787.31;5006435;28;20034;-60
2023/08/05 09:31:57;;;;;;;4.88;1.42;;;;;;;16.44;100.00;99779.28;5009476;28;20072;-62
2023/08/05 09:34:34;;;;;;;2.15;1.02;;;;;;;16.51;100.00;99764.66;5015231;28;20517;-59
2023/08/05 09:37:01;;;;;;;1.17;1.08;;;;;;;16.59;100.00;99768.78;5003539;28;20408;-66
2023/08/05 09:39:30;;;;;;;2.03;0.90;;;;;;;16.56;100.00;99759.38;5001481;28;20037;-52
2023/08/05 09:41:56;;;;;;;1.45;1.33;;;;;;;16.71;100.00;99758.78;5005029;28;20041;-56
2023/08/05 09:44:21;;;;;;;2.90;1.10;;;;;;;16.74;100.00;99746.75;5007731;28;20037;-60
2023/08/05 09:46:48;;;;;;;1.50;1.13;;;;;;;16.67;100.00;99738.91;5009221;28;20040;-63
2023/08/05 09:49:15;;;;;;;1.63;0.63;;;;;;;16.64;100.00;99735.94;5007358;28;20040;-65
2023/08/05 09:51:46;;;;;;;0.73;0.35;;;;;;;16.77;100.00;99730.19;5007122;28;20037;-65
2023/08/05 09:54:13;;;;;;;;;;;;;;;17.18;100.00;99714.59;5009019;28;20045;-63
2023/08/05 09:56:39;;;;;;;1.15;0.65;;;;;;;17.10;100.00;99710.50;5004163;28;19929;-50
2023/08/05 09:59:07;;;;;;;0.60;0.52;;;;;;;17.10;100.00;99699.00;5002468;28;20119;-58
2023/08/05 10:01:34;;;;;;;0.60;0.43;;;;;;;17.21;100.00;99695.34;5002415;28;20100;-63
2023/08/05 10:04:01;;;;;;;4.90;0.40;;;;;;;17.34;100.00;99680.72;5001955;28;20088;-63
2023/08/05 10:06:27;;;;;;;1.20;0.70;;;;;;;17.36;100.00;99684.75;4998068;28;20034;-57
2023/08/05 10:08:54;;;;;;;0.70;0.55;;;;;;;17.39;100.00;99670.84;5002933;28;20029;-59
2023/08/05 10:11:19;;;;;;;1.15;0.30;;;;;;;17.22;100.00;99662.97;5002434;28;20108;-65
2023/08/05 10:13:48;;;;;;;0.70;0.43;;;;;;;17.26;100.00;99657.09;4999005;28;20259;-57
2023/08/05 10:16:14;;;;;;;1.10;0.70;;;;;;;17.39;100.00;99653.97;5000419;28;20518;-57
2023/08/05 10:18:40;;;;;;;0.90;0.10;;;;;;;17.39;100.00;99645.94;5008131;28;20029;-58
2023/08/05 10:21:05;;;;;;;0.70;0.25;;;;;;;17.44;100.00;99637.94;5006413;28;20395;-64
2023/08/05 10:23:35;;;;;;;0.75;0.40;;;;;;;17.39;100.00;99637.91;5000402;28;20038;-65
2023/08/05 10:26:03;;;;;;;2.95;0.10;;;;;;;17.37;100.00;99631.97;4998193;28;20030;-64
2023/08/05 10:28:34;;;;;;;0.80;0.20;;;;;;;17.44;100.00;99632.56;5003037;28;20038;-60
2023/08/05 10:31:04;;;;;;;0.15;0.13;;;;;;;17.47;100.00;99625.91;4998895;28;20030;-61
2023/08/05 10:33:29;;;;;;;2.45;0.10;;;;;;;17.41;100.00;99614.34;5004866;28;20049;-62
2023/08/05 10:36:06;;;;;;;0.22;0.22;;;;;;;17.46;100.00;99622.41;4999793;28;20103;-64
2023/08/05 10:38:41;;;;;;;1.48;0.17;;;;;;;17.50;100.00;99617.34;5000994;28;20033;-57
2023/08/05 10:41:10;;;;;;;0.82;0.25;;;;;;;17.43;100.00;99604.19;5002199;28;20422;-58
2023/08/05 10:43:37;;;;;;;0.30;0.00;;;;;;;17.39;100.00;99600.38;5007623;28;20041;-58
2023/08/05 10:46:06;;;;;;;0.30;0.10;;;;;;;17.36;100.00;99596.34;5000972;28;20108;-58
2023/08/05 10:48:44;;;;;;;1.65;0.95;;;;;;;17.36;100.00;99587.50;5007534;28;20068;-55
2023/08/05 10:51:20;;;;;;;0.88;0.10;;;;;;;17.37;100.00;99567.69;5000671;28;20959;-52
2023/08/05 10:53:51;;;;;;;0.17;0.10;;;;;;;17.51;100.00;99558.13;5001706;28;20030;-55
2023/08/05 10:56:18;;;;;;;0.52;0.00;;;;;;;17.61;100.00;99549.34;5008091;28;20073;-63
2023/08/05 10:58:51;;;;;;;0.65;0.00;;;;;;;17.58;100.00;99552.53;5007709;28;20160;-57
2023/08/05 11:01:17;;;;;;;0.25;0.15;;;;;;;17.65;100.00;99537.81;5002367;28;20060;-59
2023/08/05 11:03:47;;;;;;;0.90;0.10;;;;;;;17.60;100.00;99534.31;5002992;28;20434;-58
2023/08/05 11:06:13;;;;;;;0.10;0.10;;;;;;;17.63;100.00;99528.44;4998613;28;20087;-64
2023/08/05 11:08:41;;;;;;;0.20;0.00;;;;;;;17.65;100.00;99518.25;5002994;28;20100;-61
2023/08/05 11:11:11;;;;;;;0.47;0.00;;;;;;;17.82;100.00;99512.75;5001914;28;20029;-59
2023/08/05 11:13:38;;;;;;;0.10;0.00;;;;;;;17.92;100.00;99512.78;4999872;28;20544;-58
2023/08/05 11:16:17;;;;;;;1.23;0.10;;;;;;;17.89;100.00;99505.28;4997724;28;20035;-56